sensor_id;sensor_type;location;lat;lon;timestamp;temperature;humidity
36186;DHT22;22228;53.222;7.446;2023-03-11T00:00:41;0.20;99.90
36186;DHT22;22228;53.222;7.446;2023-03-11T00:03:04;0.20;99.90
36186;DHT22;22228;53.222;7.446;2023-03-11T00:05:26;0.20;99.90
36186;DHT22;22228;53.222;7.446;2023-03-11T00:07:47;0.20;99.90
36186;DHT22;22228;53.222;7.446;2023-03-11T00:10:10;0.20;99.90
36186;DHT22;22228;53.222;7.446;2023-03-11T00:12:32;0.10;99.90
36186;DHT22;22228;53.222;7.446;2023-03-11T00:14:54;0.10;99.90
36186;DHT22;22228;53.222;7.446;2023-03-11T00:17:14;0.10;99.90
36186;DHT22;22228;53.222;7.446;2023-03-11T00:19:35;0.00;99.90
36186;DHT22;22228;53.222;7.446;2023-03-11T00:21:56;0.10;99.90
36186;DHT22;22228;53.222;7.446;2023-03-11T00:24:17;0.10;99.90
36186;DHT22;22228;53.222;7.446;2023-03-11T00:26:37;0.00;99.90
36186;DHT22;22228;53.222;7.446;2023-03-11T00:28:58;0.00;99.90
36186;DHT22;22228;53.222;7.446;2023-03-11T00:31:20;0.10;99.90
36186;DHT22;22228;53.222;7.446;2023-03-11T00:33:40;0.10;99.90
36186;DHT22;22228;53.222;7.446;2023-03-11T00:36:01;0.10;99.90
36186;DHT22;22228;53.222;7.446;2023-03-11T00:38:22;0.10;99.90
36186;DHT22;22228;53.222;7.446;2023-03-11T00:40:43;0.10;99.90
36186;DHT22;22228;53.222;7.446;2023-03-11T00:43:04;0.20;99.90
36186;DHT22;22228;53.222;7.446;2023-03-11T00:45:25;0.20;99.90
36186;DHT22;22228;53.222;7.446;2023-03-11T00:47:47;0.30;99.90
36186;DHT22;22228;53.222;7.446;2023-03-11T00:50:09;0.30;99.90
36186;DHT22;22228;53.222;7.446;2023-03-11T00:52:30;0.30;99.90
36186;DHT22;22228;53.222;7.446;2023-03-11T00:54:51;0.30;99.90
36186;DHT22;22228;53.222;7.446;2023-03-11T00:57:12;0.30;99.90
36186;DHT22;22228;53.222;7.446;2023-03-11T00:59:33;0.30;99.90
36186;DHT22;22228;53.222;7.446;2023-03-11T01:01:53;0.40;99.90
36186;DHT22;22228;53.222;7.446;2023-03-11T01:04:16;0.40;99.90
36186;DHT22;22228;53.222;7.446;2023-03-11T01:06:37;0.40;99.90
36186;DHT22;22228;53.222;7.446;2023-03-11T01:08:58;0.40;99.90
36186;DHT22;22228;53.222;7.446;2023-03-11T01:11:18;0.40;99.90
36186;DHT22;22228;53.222;7.446;2023-03-11T01:13:39;0.40;99.90
36186;DHT22;22228;53.222;7.446;2023-03-11T04:00:35;-0.40;99.90
36186;DHT22;22228;53.222;7.446;2023-03-11T04:03:05;-0.40;99.90
36186;DHT22;22228;53.222;7.446;2023-03-11T04:05:34;-0.40;99.90
36186;DHT22;22228;53.222;7.446;2023-03-11T04:07:54;-0.40;99.90
36186;DHT22;22228;53.222;7.446;2023-03-11T04:10:16;-0.50;99.90
36186;DHT22;22228;53.222;7.446;2023-03-11T04:12:37;-0.50;99.90
36186;DHT22;22228;53.222;7.446;2023-03-11T04:15:00;-0.60;99.90
36186;DHT22;22228;53.222;7.446;2023-03-11T04:17:22;-0.60;99.90
36186;DHT22;22228;53.222;7.446;2023-03-11T04:19:44;-0.70;99.90
36186;DHT22;22228;53.222;7.446;2023-03-11T04:22:05;-0.80;99.90
36186;DHT22;22228;53.222;7.446;2023-03-11T04:24:25;-0.90;99.90
36186;DHT22;22228;53.222;7.446;2023-03-11T04:26:46;-0.90;99.90
36186;DHT22;22228;53.222;7.446;2023-03-11T04:29:09;-0.90;99.90
36186;DHT22;22228;53.222;7.446;2023-03-11T04:31:34;-0.90;99.90
36186;DHT22;22228;53.222;7.446;2023-03-11T04:33:59;-1.00;99.90
36186;DHT22;22228;53.222;7.446;2023-03-11T04:36:19;-1.00;99.90
36186;DHT22;22228;53.222;7.446;2023-03-11T04:38:41;-1.00;99.90
36186;DHT22;22228;53.222;7.446;2023-03-11T04:41:05;-1.00;99.90
36186;DHT22;22228;53.222;7.446;2023-03-11T04:43:27;-1.00;99.90
36186;DHT22;22228;53.222;7.446;2023-03-11T04:45:49;-1.00;99.90
36186;DHT22;22228;53.222;7.446;2023-03-11T04:48:10;-1.00;99.90
36186;DHT22;22228;53.222;7.446;2023-03-11T04:50:34;-1.10;99.90
36186;DHT22;22228;53.222;7.446;2023-03-11T04:52:55;-1.20;99.90
36186;DHT22;22228;53.222;7.446;2023-03-11T04:55:16;-1.20;99.90
36186;DHT22;22228;53.222;7.446;2023-03-11T04:57:37;-1.20;99.90
36186;DHT22;22228;53.222;7.446;2023-03-11T04:59:57;-1.20;99.90
36186;DHT22;22228;53.222;7.446;2023-03-11T05:02:18;-1.30;99.90
36186;DHT22;22228;53.222;7.446;2023-03-11T05:04:45;-1.40;99.90
36186;DHT22;22228;53.222;7.446;2023-03-11T05:07:09;-1.40;99.90
36186;DHT22;22228;53.222;7.446;2023-03-11T05:09:30;-1.40;99.90
36186;DHT22;22228;53.222;7.446;2023-03-11T05:11:51;-1.60;99.90
36186;DHT22;22228;53.222;7.446;2023-03-11T05:14:12;-1.70;99.90
36186;DHT22;22228;53.222;7.446;2023-03-11T05:16:33;-1.80;99.90
36186;DHT22;22228;53.222;7.446;2023-03-11T05:18:53;-1.80;99.90
36186;DHT22;22228;53.222;7.446;2023-03-11T05:21:15;-1.90;99.90
36186;DHT22;22228;53.222;7.446;2023-03-11T05:23:37;-1.90;99.90
36186;DHT22;22228;53.222;7.446;2023-03-11T05:25:58;-2.00;99.90
36186;DHT22;22228;53.222;7.446;2023-03-11T05:28:18;-2.00;99.90
36186;DHT22;22228;53.222;7.446;2023-03-11T05:30:43;-2.00;99.90
36186;DHT22;22228;53.222;7.446;2023-03-11T05:33:03;-2.00;99.90
36186;DHT22;22228;53.222;7.446;2023-03-11T05:35:23;-2.00;99.90
36186;DHT22;22228;53.222;7.446;2023-03-11T05:37:45;-2.00;99.90
36186;DHT22;22228;53.222;7.446;2023-03-11T05:40:11;-2.10;99.90
36186;DHT22;22228;53.222;7.446;2023-03-11T05:42:32;-2.20;99.90
36186;DHT22;22228;53.222;7.446;2023-03-11T05:44:52;-2.30;99.90
36186;DHT22;22228;53.222;7.446;2023-03-11T05:47:15;-2.40;99.90
36186;DHT22;22228;53.222;7.446;2023-03-11T05:49:36;-2.40;99.90
36186;DHT22;22228;53.222;7.446;2023-03-11T05:51:58;-2.40;99.90
36186;DHT22;22228;53.222;7.446;2023-03-11T05:54:20;-2.50;99.90
36186;DHT22;22228;53.222;7.446;2023-03-11T05:56:45;-2.50;99.90
36186;DHT22;22228;53.222;7.446;2023-03-11T05:59:06;-2.60;99.90
36186;DHT22;22228;53.222;7.446;2023-03-11T06:01:28;-2.60;99.90
36186;DHT22;22228;53.222;7.446;2023-03-11T06:03:49;-2.70;99.90
36186;DHT22;22228;53.222;7.446;2023-03-11T06:06:11;-2.40;99.90
36186;DHT22;22228;53.222;7.446;2023-03-11T06:08:32;-2.20;99.90
36186;DHT22;22228;53.222;7.446;2023-03-11T06:10:59;-2.10;99.90
36186;DHT22;22228;53.222;7.446;2023-03-11T06:13:22;-2.00;99.90
36186;DHT22;22228;53.222;7.446;2023-03-11T06:15:44;-2.00;99.90
36186;DHT22;22228;53.222;7.446;2023-03-11T06:18:05;-1.90;99.90
36186;DHT22;22228;53.222;7.446;2023-03-11T06:20:27;-1.90;99.90
36186;DHT22;22228;53.222;7.446;2023-03-11T06:22:48;-1.90;99.90
36186;DHT22;22228;53.222;7.446;2023-03-11T06:25:09;-1.90;99.90
36186;DHT22;22228;53.222;7.446;2023-03-11T06:27:32;-2.00;99.90
36186;DHT22;22228;53.222;7.446;2023-03-11T06:29:54;-2.10;99.90
36186;DHT22;22228;53.222;7.446;2023-03-11T06:32:17;-2.10;99.90
36186;DHT22;22228;53.222;7.446;2023-03-11T06:34:37;-2.10;99.90
36186;DHT22;22228;53.222;7.446;2023-03-11T06:36:59;-2.00;99.90
36186;DHT22;22228;53.222;7.446;2023-03-11T06:39:19;-2.00;99.90
36186;DHT22;22228;53.222;7.446;2023-03-11T06:41:42;-2.00;99.90
36186;DHT22;22228;53.222;7.446;2023-03-11T06:44:04;-2.00;99.90
36186;DHT22;22228;53.222;7.446;2023-03-11T06:46:27;-2.00;99.90
36186;DHT22;22228;53.222;7.446;2023-03-11T06:48:48;-1.90;99.90
36186;DHT22;22228;53.222;7.446;2023-03-11T06:51:11;-1.90;99.90
36186;DHT22;22228;53.222;7.446;2023-03-11T06:53:32;-1.80;99.90
36186;DHT22;22228;53.222;7.446;2023-03-11T06:55:57;-1.80;99.90
36186;DHT22;22228;53.222;7.446;2023-03-11T06:58:18;-1.70;99.90
36186;DHT22;22228;53.222;7.446;2023-03-11T07:00:39;-1.70;99.90
36186;DHT22;22228;53.222;7.446;2023-03-11T07:03:01;-1.70;99.90
36186;DHT22;22228;53.222;7.446;2023-03-11T07:05:22;-1.60;99.90
36186;DHT22;22228;53.222;7.446;2023-03-11T07:07:47;-1.60;99.90
36186;DHT22;22228;53.222;7.446;2023-03-11T07:10:08;-1.50;99.90
36186;DHT22;22228;53.222;7.446;2023-03-11T07:12:29;-1.50;99.90
36186;DHT22;22228;53.222;7.446;2023-03-11T07:14:53;-1.40;99.90
36186;DHT22;22228;53.222;7.446;2023-03-11T07:17:14;-1.40;99.90
36186;DHT22;22228;53.222;7.446;2023-03-11T07:19:41;-1.30;99.90
36186;DHT22;22228;53.222;7.446;2023-03-11T07:22:01;-1.20;99.90
36186;DHT22;22228;53.222;7.446;2023-03-11T07:24:22;-1.20;99.90
36186;DHT22;22228;53.222;7.446;2023-03-11T07:26:42;-1.10;99.90
36186;DHT22;22228;53.222;7.446;2023-03-11T07:29:03;-1.00;99.90
36186;DHT22;22228;53.222;7.446;2023-03-11T07:31:25;-1.00;99.90
36186;DHT22;22228;53.222;7.446;2023-03-11T07:33:46;-1.00;99.90
36186;DHT22;22228;53.222;7.446;2023-03-11T07:36:09;-1.00;99.90
36186;DHT22;22228;53.222;7.446;2023-03-11T07:38:31;-1.00;99.90
36186;DHT22;22228;53.222;7.446;2023-03-11T07:40:57;-1.00;99.90
36186;DHT22;22228;53.222;7.446;2023-03-11T07:43:17;-0.90;99.90
36186;DHT22;22228;53.222;7.446;2023-03-11T07:45:38;-0.90;99.90
36186;DHT22;22228;53.222;7.446;2023-03-11T07:47:58;-0.90;99.90
36186;DHT22;22228;53.222;7.446;2023-03-11T07:50:19;-0.80;99.90
36186;DHT22;22228;53.222;7.446;2023-03-11T07:52:42;-0.80;99.90
36186;DHT22;22228;53.222;7.446;2023-03-11T07:55:03;-0.80;99.90
36186;DHT22;22228;53.222;7.446;2023-03-11T07:57:23;-0.70;99.90
36186;DHT22;22228;53.222;7.446;2023-03-11T07:59:44;-0.60;99.90
36186;DHT22;22228;53.222;7.446;2023-03-11T08:02:05;-0.60;99.90
36186;DHT22;22228;53.222;7.446;2023-03-11T08:04:26;-0.60;99.90
36186;DHT22;22228;53.222;7.446;2023-03-11T08:06:46;-0.60;99.90
36186;DHT22;22228;53.222;7.446;2023-03-11T08:09:09;-0.50;99.90
36186;DHT22;22228;53.222;7.446;2023-03-11T08:11:30;-0.50;99.90
36186;DHT22;22228;53.222;7.446;2023-03-11T08:13:51;-0.50;99.90
36186;DHT22;22228;53.222;7.446;2023-03-11T08:16:14;-0.40;99.90
36186;DHT22;22228;53.222;7.446;2023-03-11T08:18:34;-0.40;99.90
36186;DHT22;22228;53.222;7.446;2023-03-11T08:20:55;-0.30;99.90
36186;DHT22;22228;53.222;7.446;2023-03-11T08:23:15;-0.20;99.90
36186;DHT22;22228;53.222;7.446;2023-03-11T08:25:39;-0.20;99.90
36186;DHT22;22228;53.222;7.446;2023-03-11T08:27:59;-0.10;99.90
36186;DHT22;22228;53.222;7.446;2023-03-11T08:30:20;0.00;99.90
36186;DHT22;22228;53.222;7.446;2023-03-11T08:32:40;0.10;99.90
36186;DHT22;22228;53.222;7.446;2023-03-11T08:35:01;0.10;99.90
36186;DHT22;22228;53.222;7.446;2023-03-11T08:37:21;0.20;99.90
36186;DHT22;22228;53.222;7.446;2023-03-11T08:39:42;0.20;99.90
36186;DHT22;22228;53.222;7.446;2023-03-11T08:42:04;0.30;99.90
36186;DHT22;22228;53.222;7.446;2023-03-11T08:44:24;0.30;99.90
36186;DHT22;22228;53.222;7.446;2023-03-11T08:46:44;0.30;99.90
36186;DHT22;22228;53.222;7.446;2023-03-11T08:49:05;0.30;99.90
36186;DHT22;22228;53.222;7.446;2023-03-11T08:51:26;0.40;99.90
36186;DHT22;22228;53.222;7.446;2023-03-11T08:53:46;0.40;99.90
36186;DHT22;22228;53.222;7.446;2023-03-11T08:56:07;0.50;99.90
36186;DHT22;22228;53.222;7.446;2023-03-11T08:58:29;0.50;99.90
36186;DHT22;22228;53.222;7.446;2023-03-11T09:00:49;0.50;99.90
36186;DHT22;22228;53.222;7.446;2023-03-11T09:03:10;0.50;99.90
36186;DHT22;22228;53.222;7.446;2023-03-11T09:05:31;0.60;99.90
36186;DHT22;22228;53.222;7.446;2023-03-11T09:07:51;0.70;99.90
36186;DHT22;22228;53.222;7.446;2023-03-11T09:10:13;0.70;99.90
36186;DHT22;22228;53.222;7.446;2023-03-11T09:12:34;0.80;99.90
36186;DHT22;22228;53.222;7.446;2023-03-11T09:14:56;0.90;99.90
36186;DHT22;22228;53.222;7.446;2023-03-11T09:17:16;0.90;99.90
36186;DHT22;22228;53.222;7.446;2023-03-11T09:19:37;0.90;99.90
36186;DHT22;22228;53.222;7.446;2023-03-11T09:21:58;1.00;99.90
36186;DHT22;22228;53.222;7.446;2023-03-11T09:24:19;1.00;99.90
36186;DHT22;22228;53.222;7.446;2023-03-11T09:26:39;1.10;99.90
36186;DHT22;22228;53.222;7.446;2023-03-11T09:29:00;1.10;99.90
36186;DHT22;22228;53.222;7.446;2023-03-11T09:31:22;1.10;99.90
36186;DHT22;22228;53.222;7.446;2023-03-11T09:33:43;1.20;99.90
36186;DHT22;22228;53.222;7.446;2023-03-11T09:36:05;1.20;99.90
36186;DHT22;22228;53.222;7.446;2023-03-11T09:38:25;1.20;99.90
36186;DHT22;22228;53.222;7.446;2023-03-11T09:40:53;1.20;99.90
36186;DHT22;22228;53.222;7.446;2023-03-11T09:43:19;1.30;99.90
36186;DHT22;22228;53.222;7.446;2023-03-11T09:45:49;1.30;99.90
36186;DHT22;22228;53.222;7.446;2023-03-11T09:48:20;1.30;99.90
36186;DHT22;22228;53.222;7.446;2023-03-11T09:50:46;1.30;99.90
36186;DHT22;22228;53.222;7.446;2023-03-11T09:53:21;1.30;99.90
36186;DHT22;22228;53.222;7.446;2023-03-11T09:55:45;1.30;99.90
36186;DHT22;22228;53.222;7.446;2023-03-11T09:58:13;1.40;99.90
36186;DHT22;22228;53.222;7.446;2023-03-11T10:00:35;1.40;99.90
36186;DHT22;22228;53.222;7.446;2023-03-11T10:02:55;1.40;99.90
36186;DHT22;22228;53.222;7.446;2023-03-11T10:05:20;1.50;99.90
36186;DHT22;22228;53.222;7.446;2023-03-11T10:07:46;1.50;99.90
36186;DHT22;22228;53.222;7.446;2023-03-11T10:10:12;1.60;99.90
36186;DHT22;22228;53.222;7.446;2023-03-11T10:12:43;1.60;99.90
36186;DHT22;22228;53.222;7.446;2023-03-11T10:15:18;1.70;99.90
36186;DHT22;22228;53.222;7.446;2023-03-11T10:17:49;1.70;99.90
36186;DHT22;22228;53.222;7.446;2023-03-11T10:20:16;1.80;99.90
36186;DHT22;22228;53.222;7.446;2023-03-11T10:22:44;1.90;99.90
36186;DHT22;22228;53.222;7.446;2023-03-11T10:25:10;1.90;99.90
36186;DHT22;22228;53.222;7.446;2023-03-11T10:27:36;2.00;99.90
36186;DHT22;22228;53.222;7.446;2023-03-11T10:30:05;2.00;99.90
36186;DHT22;22228;53.222;7.446;2023-03-11T10:32:34;2.10;99.90
36186;DHT22;22228;53.222;7.446;2023-03-11T10:35:03;2.20;99.90
36186;DHT22;22228;53.222;7.446;2023-03-11T10:37:26;2.20;99.90
36186;DHT22;22228;53.222;7.446;2023-03-11T10:39:49;2.20;99.90
36186;DHT22;22228;53.222;7.446;2023-03-11T10:42:12;2.20;99.90
36186;DHT22;22228;53.222;7.446;2023-03-11T10:44:40;2.20;99.90
36186;DHT22;22228;53.222;7.446;2023-03-11T10:47:01;2.30;99.90
36186;DHT22;22228;53.222;7.446;2023-03-11T10:49:21;2.30;99.90
36186;DHT22;22228;53.222;7.446;2023-03-11T10:51:45;2.40;99.90
36186;DHT22;22228;53.222;7.446;2023-03-11T10:54:05;2.40;99.90
36186;DHT22;22228;53.222;7.446;2023-03-11T10:56:30;2.50;99.90
36186;DHT22;22228;53.222;7.446;2023-03-11T10:58:51;2.60;99.90
36186;DHT22;22228;53.222;7.446;2023-03-11T11:01:14;2.70;99.90
36186;DHT22;22228;53.222;7.446;2023-03-11T11:03:40;2.70;99.90
36186;DHT22;22228;53.222;7.446;2023-03-11T11:06:03;2.80;99.90
36186;DHT22;22228;53.222;7.446;2023-03-11T11:08:24;2.80;99.90
36186;DHT22;22228;53.222;7.446;2023-03-11T11:10:50;2.90;99.90
36186;DHT22;22228;53.222;7.446;2023-03-11T11:13:19;3.00;99.90
36186;DHT22;22228;53.222;7.446;2023-03-11T11:15:49;3.10;99.90
36186;DHT22;22228;53.222;7.446;2023-03-11T11:18:16;3.10;99.90
36186;DHT22;22228;53.222;7.446;2023-03-11T11:20:38;3.20;99.90
36186;DHT22;22228;53.222;7.446;2023-03-11T11:23:02;3.30;99.90
36186;DHT22;22228;53.222;7.446;2023-03-11T11:25:25;3.30;99.90
36186;DHT22;22228;53.222;7.446;2023-03-11T11:27:53;3.40;99.90
36186;DHT22;22228;53.222;7.446;2023-03-11T11:30:17;3.40;99.90
36186;DHT22;22228;53.222;7.446;2023-03-11T11:32:38;3.50;99.90
36186;DHT22;22228;53.222;7.446;2023-03-11T11:35:00;3.50;99.90
36186;DHT22;22228;53.222;7.446;2023-03-11T11:37:20;3.60;99.90
36186;DHT22;22228;53.222;7.446;2023-03-11T11:39:45;3.70;99.90
36186;DHT22;22228;53.222;7.446;2023-03-11T11:42:11;3.70;99.90
36186;DHT22;22228;53.222;7.446;2023-03-11T11:44:33;3.80;99.90
36186;DHT22;22228;53.222;7.446;2023-03-11T11:46:56;3.80;99.90
36186;DHT22;22228;53.222;7.446;2023-03-11T11:49:19;3.80;99.90
36186;DHT22;22228;53.222;7.446;2023-03-11T11:51:45;3.90;99.90
36186;DHT22;22228;53.222;7.446;2023-03-11T11:54:14;3.90;99.90
36186;DHT22;22228;53.222;7.446;2023-03-11T11:56:36;3.90;99.90
36186;DHT22;22228;53.222;7.446;2023-03-11T11:58:59;3.90;99.90
36186;DHT22;22228;53.222;7.446;2023-03-11T12:01:29;3.90;99.90
36186;DHT22;22228;53.222;7.446;2023-03-11T12:04:16;4.00;99.90
36186;DHT22;22228;53.222;7.446;2023-03-11T12:06:45;4.10;99.90
36186;DHT22;22228;53.222;7.446;2023-03-11T12:09:16;4.10;99.90
36186;DHT22;22228;53.222;7.446;2023-03-11T12:11:48;4.10;99.90
36186;DHT22;22228;53.222;7.446;2023-03-11T12:14:15;4.20;99.90
36186;DHT22;22228;53.222;7.446;2023-03-11T12:16:41;4.20;99.90
36186;DHT22;22228;53.222;7.446;2023-03-11T12:19:13;4.30;99.90
36186;DHT22;22228;53.222;7.446;2023-03-11T12:21:54;4.40;99.90
36186;DHT22;22228;53.222;7.446;2023-03-11T12:24:38;4.40;99.90
36186;DHT22;22228;53.222;7.446;2023-03-11T12:27:07;4.50;99.90
36186;DHT22;22228;53.222;7.446;2023-03-11T12:29:33;4.60;99.90
36186;DHT22;22228;53.222;7.446;2023-03-11T12:31:56;4.60;99.90
36186;DHT22;22228;53.222;7.446;2023-03-11T12:34:21;4.60;99.90
36186;DHT22;22228;53.222;7.446;2023-03-11T12:36:43;4.70;99.90
36186;DHT22;22228;53.222;7.446;2023-03-11T12:39:06;4.70;99.90
36186;DHT22;22228;53.222;7.446;2023-03-11T12:41:30;4.70;99.90
36186;DHT22;22228;53.222;7.446;2023-03-11T12:44:23;4.80;99.90
36186;DHT22;22228;53.222;7.446;2023-03-11T12:47:18;4.90;99.90
36186;DHT22;22228;53.222;7.446;2023-03-11T12:49:42;4.90;99.90
36186;DHT22;22228;53.222;7.446;2023-03-11T12:52:17;5.00;99.90
36186;DHT22;22228;53.222;7.446;2023-03-11T12:54:38;5.10;99.90
36186;DHT22;22228;53.222;7.446;2023-03-11T12:57:01;5.20;99.90
36186;DHT22;22228;53.222;7.446;2023-03-11T12:59:53;5.40;99.90
36186;DHT22;22228;53.222;7.446;2023-03-11T13:02:30;5.60;99.90
36186;DHT22;22228;53.222;7.446;2023-03-11T13:04:58;5.80;99.90
36186;DHT22;22228;53.222;7.446;2023-03-11T13:07:46;5.80;99.90
36186;DHT22;22228;53.222;7.446;2023-03-11T13:10:17;5.80;99.90
36186;DHT22;22228;53.222;7.446;2023-03-11T13:12:40;5.70;99.90
36186;DHT22;22228;53.222;7.446;2023-03-11T13:15:28;5.70;99.90
36186;DHT22;22228;53.222;7.446;2023-03-11T13:17:58;5.60;99.90
36186;DHT22;22228;53.222;7.446;2023-03-11T13:20:44;5.50;99.90
36186;DHT22;22228;53.222;7.446;2023-03-11T13:23:08;5.40;99.90
36186;DHT22;22228;53.222;7.446;2023-03-11T13:25:37;5.30;99.90
36186;DHT22;22228;53.222;7.446;2023-03-11T13:28:21;5.20;99.90
36186;DHT22;22228;53.222;7.446;2023-03-11T13:30:49;5.30;99.90
36186;DHT22;22228;53.222;7.446;2023-03-11T13:33:22;5.30;99.90
36186;DHT22;22228;53.222;7.446;2023-03-11T13:35:57;5.40;99.90
36186;DHT22;22228;53.222;7.446;2023-03-11T13:38:46;5.50;99.90
36186;DHT22;22228;53.222;7.446;2023-03-11T13:41:14;5.60;99.90
36186;DHT22;22228;53.222;7.446;2023-03-11T13:43:43;5.70;99.90
36186;DHT22;22228;53.222;7.446;2023-03-11T13:46:10;5.70;99.90
36186;DHT22;22228;53.222;7.446;2023-03-11T13:48:34;5.60;99.90
36186;DHT22;22228;53.222;7.446;2023-03-11T13:51:03;5.60;99.90
36186;DHT22;22228;53.222;7.446;2023-03-11T13:53:28;5.50;99.90
36186;DHT22;22228;53.222;7.446;2023-03-11T13:55:49;5.50;99.90
36186;DHT22;22228;53.222;7.446;2023-03-11T13:58:14;5.60;99.90
36186;DHT22;22228;53.222;7.446;2023-03-11T14:00:35;5.70;99.90
36186;DHT22;22228;53.222;7.446;2023-03-11T14:02:57;5.70;99.90
36186;DHT22;22228;53.222;7.446;2023-03-11T14:05:21;5.80;99.90
36186;DHT22;22228;53.222;7.446;2023-03-11T14:07:44;5.80;99.90
36186;DHT22;22228;53.222;7.446;2023-03-11T14:10:27;5.80;99.90
36186;DHT22;22228;53.222;7.446;2023-03-11T14:12:48;5.70;99.90
36186;DHT22;22228;53.222;7.446;2023-03-11T14:15:12;5.80;99.90
36186;DHT22;22228;53.222;7.446;2023-03-11T14:17:34;5.80;99.90
36186;DHT22;22228;53.222;7.446;2023-03-11T14:20:06;5.80;99.90
36186;DHT22;22228;53.222;7.446;2023-03-11T14:22:28;5.90;99.90
36186;DHT22;22228;53.222;7.446;2023-03-11T14:24:49;5.90;99.90
36186;DHT22;22228;53.222;7.446;2023-03-11T14:27:13;6.00;99.90
36186;DHT22;22228;53.222;7.446;2023-03-11T14:29:36;6.10;99.90
36186;DHT22;22228;53.222;7.446;2023-03-11T14:31:57;6.20;99.90
36186;DHT22;22228;53.222;7.446;2023-03-11T14:34:19;6.40;99.90
36186;DHT22;22228;53.222;7.446;2023-03-11T14:36:40;6.50;99.90
36186;DHT22;22228;53.222;7.446;2023-03-11T14:39:02;6.50;99.90
36186;DHT22;22228;53.222;7.446;2023-03-11T14:41:23;6.30;99.90
36186;DHT22;22228;53.222;7.446;2023-03-11T14:43:46;6.30;99.90
36186;DHT22;22228;53.222;7.446;2023-03-11T14:46:17;6.20;99.90
36186;DHT22;22228;53.222;7.446;2023-03-11T14:48:41;6.00;99.90
36186;DHT22;22228;53.222;7.446;2023-03-11T14:51:06;6.00;99.90
36186;DHT22;22228;53.222;7.446;2023-03-11T14:53:31;6.00;99.90
36186;DHT22;22228;53.222;7.446;2023-03-11T14:55:55;6.00;99.90
36186;DHT22;22228;53.222;7.446;2023-03-11T14:58:22;6.10;99.90
36186;DHT22;22228;53.222;7.446;2023-03-11T15:00:49;6.10;99.90
36186;DHT22;22228;53.222;7.446;2023-03-11T15:03:20;6.00;99.90
36186;DHT22;22228;53.222;7.446;2023-03-11T15:05:46;6.10;99.90
36186;DHT22;22228;53.222;7.446;2023-03-11T15:08:08;6.20;99.90
36186;DHT22;22228;53.222;7.446;2023-03-11T15:10:28;6.30;99.90
36186;DHT22;22228;53.222;7.446;2023-03-11T15:13:03;6.40;99.90
36186;DHT22;22228;53.222;7.446;2023-03-11T15:15:27;6.50;99.90
36186;DHT22;22228;53.222;7.446;2023-03-11T15:17:51;6.50;99.90
36186;DHT22;22228;53.222;7.446;2023-03-11T15:20:23;6.40;99.90
36186;DHT22;22228;53.222;7.446;2023-03-11T15:22:44;6.30;99.90
36186;DHT22;22228;53.222;7.446;2023-03-11T15:25:15;6.10;99.90
36186;DHT22;22228;53.222;7.446;2023-03-11T15:27:38;6.10;99.90
36186;DHT22;22228;53.222;7.446;2023-03-11T15:30:00;6.10;99.90
36186;DHT22;22228;53.222;7.446;2023-03-11T15:32:37;6.10;99.90
36186;DHT22;22228;53.222;7.446;2023-03-11T15:34:59;6.00;99.90
36186;DHT22;22228;53.222;7.446;2023-03-11T15:37:20;6.00;99.90
36186;DHT22;22228;53.222;7.446;2023-03-11T15:39:45;6.00;99.90
36186;DHT22;22228;53.222;7.446;2023-03-11T15:42:12;5.90;99.90
36186;DHT22;22228;53.222;7.446;2023-03-11T15:44:36;5.80;99.90
36186;DHT22;22228;53.222;7.446;2023-03-11T15:46:59;5.80;99.90
36186;DHT22;22228;53.222;7.446;2023-03-11T15:49:20;5.80;99.90
36186;DHT22;22228;53.222;7.446;2023-03-11T15:51:41;5.70;99.90
36186;DHT22;22228;53.222;7.446;2023-03-11T15:54:01;5.60;99.90
36186;DHT22;22228;53.222;7.446;2023-03-11T15:56:23;5.60;99.90
36186;DHT22;22228;53.222;7.446;2023-03-11T15:58:44;5.60;99.90
36186;DHT22;22228;53.222;7.446;2023-03-11T16:01:04;5.50;99.90
36186;DHT22;22228;53.222;7.446;2023-03-11T16:03:25;5.50;99.90
36186;DHT22;22228;53.222;7.446;2023-03-11T16:05:47;5.40;99.90
36186;DHT22;22228;53.222;7.446;2023-03-11T16:08:07;5.20;99.90
36186;DHT22;22228;53.222;7.446;2023-03-11T16:10:28;4.90;99.90
36186;DHT22;22228;53.222;7.446;2023-03-11T16:12:48;4.60;99.90
36186;DHT22;22228;53.222;7.446;2023-03-11T16:15:19;4.20;99.90
36186;DHT22;22228;53.222;7.446;2023-03-11T16:17:35;3.40;99.90
36186;DHT22;22228;53.222;7.446;2023-03-11T16:19:55;2.60;99.90
36186;DHT22;22228;53.222;7.446;2023-03-11T16:22:19;2.30;99.90
36186;DHT22;22228;53.222;7.446;2023-03-11T16:24:40;2.10;99.90
36186;DHT22;22228;53.222;7.446;2023-03-11T16:27:02;2.20;99.90
36186;DHT22;22228;53.222;7.446;2023-03-11T16:29:22;2.20;99.90
36186;DHT22;22228;53.222;7.446;2023-03-11T16:31:45;2.30;99.90
36186;DHT22;22228;53.222;7.446;2023-03-11T16:34:07;2.50;99.90
36186;DHT22;22228;53.222;7.446;2023-03-11T16:36:27;2.50;99.90
36186;DHT22;22228;53.222;7.446;2023-03-11T16:38:49;2.60;99.90
36186;DHT22;22228;53.222;7.446;2023-03-11T16:41:10;2.70;99.90
36186;DHT22;22228;53.222;7.446;2023-03-11T16:43:31;2.80;99.90
36186;DHT22;22228;53.222;7.446;2023-03-11T16:45:51;2.70;99.90
36186;DHT22;22228;53.222;7.446;2023-03-11T16:48:12;2.70;99.90
36186;DHT22;22228;53.222;7.446;2023-03-11T16:50:33;2.60;99.90
36186;DHT22;22228;53.222;7.446;2023-03-11T16:52:54;2.50;99.90
36186;DHT22;22228;53.222;7.446;2023-03-11T16:55:16;2.50;99.90
36186;DHT22;22228;53.222;7.446;2023-03-11T16:57:36;2.60;99.90
36186;DHT22;22228;53.222;7.446;2023-03-11T16:59:57;2.50;99.90
36186;DHT22;22228;53.222;7.446;2023-03-11T17:02:18;2.50;99.90
36186;DHT22;22228;53.222;7.446;2023-03-11T17:04:39;2.40;99.90
36186;DHT22;22228;53.222;7.446;2023-03-11T17:07:00;2.40;99.90
36186;DHT22;22228;53.222;7.446;2023-03-11T17:09:20;2.40;99.90
36186;DHT22;22228;53.222;7.446;2023-03-11T17:11:43;2.40;99.90
36186;DHT22;22228;53.222;7.446;2023-03-11T17:14:03;2.30;99.90
36186;DHT22;22228;53.222;7.446;2023-03-11T17:16:23;2.30;99.90
36186;DHT22;22228;53.222;7.446;2023-03-11T17:18:44;2.30;99.90
36186;DHT22;22228;53.222;7.446;2023-03-11T17:21:06;2.30;99.90
36186;DHT22;22228;53.222;7.446;2023-03-11T17:23:26;2.30;99.90
36186;DHT22;22228;53.222;7.446;2023-03-11T17:25:47;2.20;99.90
36186;DHT22;22228;53.222;7.446;2023-03-11T17:28:09;2.20;99.90
36186;DHT22;22228;53.222;7.446;2023-03-11T17:30:29;2.20;99.90
36186;DHT22;22228;53.222;7.446;2023-03-11T17:32:50;2.20;99.90
36186;DHT22;22228;53.222;7.446;2023-03-11T17:35:11;2.10;99.90
36186;DHT22;22228;53.222;7.446;2023-03-11T17:37:32;2.10;99.90
36186;DHT22;22228;53.222;7.446;2023-03-11T17:39:52;2.10;99.90
36186;DHT22;22228;53.222;7.446;2023-03-11T17:42:13;2.00;99.90
36186;DHT22;22228;53.222;7.446;2023-03-11T17:44:34;1.90;99.90
36186;DHT22;22228;53.222;7.446;2023-03-11T17:46:55;1.90;99.90
36186;DHT22;22228;53.222;7.446;2023-03-11T17:49:16;1.90;99.90
36186;DHT22;22228;53.222;7.446;2023-03-11T17:51:36;1.80;99.90
36186;DHT22;22228;53.222;7.446;2023-03-11T17:53:57;1.80;99.90
36186;DHT22;22228;53.222;7.446;2023-03-11T17:56:18;1.80;99.90
36186;DHT22;22228;53.222;7.446;2023-03-11T17:58:39;1.80;99.90
36186;DHT22;22228;53.222;7.446;2023-03-11T18:01:04;1.80;99.90
36186;DHT22;22228;53.222;7.446;2023-03-11T18:03:24;1.70;99.90